Time;durP1;ratioP1;P1;durP2;ratioP2;P2;SDS_P1;SDS_P2;PMS_P1;PMS_P2;Temp;Humidity;BMP_temperature;BMP_pressure;BME280_temperature;BME280_humidity;BME280_pressure;Samples;Min_cycle;Max_cycle;Signal;HPM_P1;HPM_P2
2021/01/29 00:00:24;;;;;;;8.77;1.50;;;1.10;99.90;;;;;;4927981;29;20031;-70
2021/01/29 00:02:52;;;;;;;1.65;1.30;;;1.10;99.90;;;;;;4927690;29;20032;-70
2021/01/29 00:05:24;;;;;;;7.30;1.33;;;1.20;99.90;;;;;;4927785;29;20189;-70
2021/01/29 00:07:50;;;;;;;3.33;1.50;;;1.20;99.90;;;;;;4927849;29;20095;-69
2021/01/29 00:10:16;;;;;;;2.53;1.08;;;1.20;99.90;;;;;;4927273;29;20053;-70
2021/01/29 00:12:42;;;;;;;2.17;1.10;;;1.10;99.90;;;;;;4927011;29;20046;-70
2021/01/29 00:15:10;;;;;;;2.10;0.82;;;1.10;99.90;;;;;;4927749;29;20099;-70
2021/01/29 00:17:36;;;;;;;1.40;0.90;;;1.10;99.90;;;;;;4927091;29;20036;-70
2021/01/29 00:20:05;;;;;;;1.60;0.93;;;1.10;99.90;;;;;;4926382;29;20027;-71
2021/01/29 00:22:30;;;;;;;2.50;1.30;;;1.10;99.90;;;;;;4927393;29;20081;-70
2021/01/29 00:24:56;;;;;;;5.28;1.55;;;1.10;99.90;;;;;;4926299;29;20044;-70
2021/01/29 00:27:22;;;;;;;3.60;1.48;;;1.10;99.90;;;;;;4927246;29;20036;-70
2021/01/29 00:29:47;;;;;;;4.43;1.48;;;1.00;99.90;;;;;;4927516;29;20052;-70
2021/01/29 00:32:13;;;;;;;2.05;1.02;;;1.00;99.90;;;;;;4926380;29;20048;-69
2021/01/29 00:34:38;;;;;;;3.13;1.27;;;1.00;99.90;;;;;;4927372;29;20039;-70
2021/01/29 00:37:04;;;;;;;2.55;1.20;;;0.90;99.90;;;;;;4927414;29;20039;-70
2021/01/29 00:39:29;;;;;;;1.38;0.90;;;0.90;99.90;;;;;;4928102;29;20029;-69
2021/01/29 00:41:55;;;;;;;4.30;1.23;;;0.90;99.90;;;;;;4931235;29;20048;-69
2021/01/29 00:44:21;;;;;;;2.60;1.05;;;1.00;99.90;;;;;;4930855;29;20074;-69
2021/01/29 00:46:47;;;;;;;2.53;1.13;;;0.90;99.90;;;;;;4930688;29;20422;-69
2021/01/29 00:49:12;;;;;;;1.42;1.13;;;0.90;99.90;;;;;;4930905;29;20101;-70
2021/01/29 00:51:38;;;;;;;2.22;0.85;;;0.90;99.90;;;;;;4930703;29;20043;-70
2021/01/29 00:54:03;;;;;;;2.20;1.13;;;0.90;99.90;;;;;;4930646;29;20036;-70
2021/01/29 00:56:29;;;;;;;1.25;1.05;;;0.80;99.90;;;;;;4930912;29;20047;-69
2021/01/29 00:58:55;;;;;;;2.70;1.67;;;0.90;99.90;;;;;;4930871;29;20036;-69
2021/01/29 01:01:20;;;;;;;1.67;1.00;;;0.90;99.90;;;;;;4930588;29;20040;-69
2021/01/29 01:03:46;;;;;;;4.28;1.05;;;0.90;99.90;;;;;;4930818;29;20063;-69
2021/01/29 01:06:11;;;;;;;3.50;1.52;;;0.80;99.90;;;;;;4930413;29;20142;-69
2021/01/29 01:08:37;;;;;;;3.38;1.10;;;0.80;99.90;;;;;;4930418;29;20032;-69
2021/01/29 01:11:03;;;;;;;5.78;1.15;;;0.80;99.90;;;;;;4930414;29;20036;-70
2021/01/29 01:13:29;;;;;;;21.90;1.60;;;0.80;99.90;;;;;;4930180;29;20063;-69
2021/01/29 01:15:54;;;;;;;2.70;1.60;;;0.80;99.90;;;;;;4930634;29;20047;-69
2021/01/29 01:18:20;;;;;;;1.88;0.57;;;0.80;99.90;;;;;;4930479;29;20036;-69
2021/01/29 01:20:45;;;;;;;4.03;1.35;;;0.70;99.90;;;;;;4929208;29;20098;-69
2021/01/29 01:23:11;;;;;;;1.75;1.13;;;0.70;99.90;;;;;;4930143;29;20024;-69
2021/01/29 01:25:37;;;;;;;1.10;0.93;;;0.70;99.90;;;;;;4930392;29;20047;-70
2021/01/29 01:28:02;;;;;;;3.67;1.60;;;0.70;99.90;;;;;;4930064;29;20473;-70
2021/01/29 01:30:33;;;;;;;3.22;1.40;;;0.70;99.90;;;;;;4930303;29;20040;-70
2021/01/29 01:32:59;;;;;;;3.22;1.38;;;0.70;99.90;;;;;;4930671;29;20036;-69
2021/01/29 01:35:25;;;;;;;2.95;1.58;;;0.70;99.90;;;;;;4929790;29;20088;-70
2021/01/29 01:37:51;;;;;;;1.33;0.82;;;0.80;99.90;;;;;;4930198;29;20032;-68
2021/01/29 01:40:25;;;;;;;3.25;1.50;;;0.80;99.90;;;;;;4929343;29;20055;-68
2021/01/29 01:42:51;;;;;;;1.75;1.02;;;0.80;99.90;;;;;;4927389;29;20036;-69
2021/01/29 01:45:29;;;;;;;1.73;0.73;;;0.80;99.90;;;;;;4927637;29;20028;-68
2021/01/29 01:48:02;;;;;;;1.55;0.98;;;0.80;99.90;;;;;;4929579;29;20055;-69
2021/01/29 01:50:34;;;;;;;0.90;0.70;;;0.90;99.90;;;;;;4929855;29;20051;-70
2021/01/29 01:53:11;;;;;;;0.68;0.50;;;0.80;99.90;;;;;;4929232;29;20047;-69
2021/01/29 01:55:38;;;;;;;1.85;1.10;;;0.80;99.90;;;;;;4929256;29;20036;-69
2021/01/29 01:58:05;;;;;;;3.13;1.70;;;0.80;99.90;;;;;;4929776;29;20475;-69
2021/01/29 02:00:32;;;;;;;2.25;1.00;;;0.80;99.90;;;;;;4929793;29;20501;-70
2021/01/29 02:03:03;;;;;;;1.48;1.00;;;0.80;99.90;;;;;;4929255;29;20043;-70
2021/01/29 02:05:35;;;;;;;2.90;1.40;;;0.80;99.90;;;;;;4930148;29;20048;-71
2021/01/29 02:08:05;;;;;;;1.85;1.08;;;0.80;99.90;;;;;;4929527;29;20034;-69
2021/01/29 02:10:33;;;;;;;5.38;0.70;;;0.80;99.90;;;;;;4929301;29;20036;-70
2021/01/29 02:13:00;;;;;;;2.03;1.10;;;0.80;99.90;;;;;;4929727;29;20042;-70
2021/01/29 02:15:30;;;;;;;0.70;0.60;;;0.80;99.90;;;;;;4929450;29;20032;-70
2021/01/29 02:18:20;;;;;;;1.95;0.70;;;0.70;99.90;;;;;;4929236;29;20122;-70
2021/01/29 02:21:03;;;;;;;4.13;1.23;;;0.70;99.90;;;;;;4928982;29;20060;-69
2021/01/29 02:23:45;;;;;;;4.28;0.75;;;0.80;99.90;;;;;;4929194;29;20032;-70
2021/01/29 02:26:32;;;;;;;1.25;0.57;;;0.80;99.90;;;;;;4929180;29;20060;-69
2021/01/29 02:29:07;;;;;;;2.50;0.98;;;0.80;99.90;;;;;;4929165;29;20091;-70
2021/01/29 02:32:05;;;;;;;1.85;1.13;;;0.80;99.90;;;;;;4928887;29;20381;-69
2021/01/29 02:35:02;;;;;;;7.53;1.80;;;0.80;99.90;;;;;;4886963;29;20040;-69
2021/01/29 02:37:46;;;;;;;1.80;0.82;;;0.80;99.90;;;;;;4928812;29;20032;-70
2021/01/29 02:40:33;;;;;;;3.30;1.33;;;0.80;99.90;;;;;;4929072;29;20032;-69
2021/01/29 02:43:28;;;;;;;2.45;1.38;;;0.80;99.90;;;;;;4928765;29;20040;-70
2021/01/29 02:45:57;;;;;;;2.47;1.02;;;0.80;99.90;;;;;;4928602;29;20099;-69
2021/01/29 02:48:45;;;;;;;8.60;0.93;;;0.80;99.90;;;;;;4928988;29;20068;-69
2021/01/29 02:51:38;;;;;;;2.65;1.20;;;0.80;99.90;;;;;;4928519;29;20092;-70
2021/01/29 02:54:22;;;;;;;0.63;0.63;;;0.80;99.90;;;;;;4921116;29;20040;-69
2021/01/29 02:56:51;;;;;;;1.75;1.10;;;0.80;99.90;;;;;;4928779;29;20044;-69
2021/01/29 02:59:32;;;;;;;9.63;1.45;;;0.80;99.90;;;;;;4928179;29;20036;-69
2021/01/29 03:02:03;;;;;;;4.45;0.68;;;0.80;99.90;;;;;;4928900;29;20040;-70
2021/01/29 03:04:48;;;;;;;2.13;1.45;;;0.80;99.90;;;;;;4928452;29;20036;-70
2021/01/29 03:07:24;;;;;;;1.90;0.95;;;0.80;99.90;;;;;;4928139;29;20028;-69
2021/01/29 03:10:08;;;;;;;1.90;0.65;;;0.80;99.90;;;;;;4928479;29;20558;-69
2021/01/29 03:12:44;;;;;;;2.25;1.42;;;0.80;99.90;;;;;;4928443;29;20032;-70
2021/01/29 03:15:20;;;;;;;3.55;1.40;;;0.80;99.90;;;;;;4928416;29;20040;-69
2021/01/29 03:18:15;;;;;;;5.93;1.45;;;0.80;99.90;;;;;;4928368;29;20127;-69
2021/01/29 03:20:51;;;;;;;2.00;1.35;;;0.70;99.90;;;;;;4927637;29;20059;-70
2021/01/29 03:23:52;;;;;;;1.38;0.88;;;0.70;99.90;;;;;;4928349;29;20032;-70
2021/01/29 03:26:42;;;;;;;2.55;0.80;;;0.80;99.90;;;;;;4917487;29;20132;-68
2021/01/29 03:29:13;;;;;;;1.75;1.10;;;0.70;99.90;;;;;;4928045;29;20060;-69
2021/01/29 03:31:43;;;;;;;1.77;1.25;;;0.70;99.90;;;;;;4928116;29;20067;-70
2021/01/29 03:34:13;;;;;;;1.67;1.00;;;0.70;99.90;;;;;;4927781;29;20020;-69
2021/01/29 03:36:49;;;;;;;2.38;1.10;;;0.70;99.90;;;;;;4928262;29;20024;-69
2021/01/29 03:39:45;;;;;;;1.48;1.00;;;0.60;99.90;;;;;;4927966;29;20040;-69
2021/01/29 03:42:31;;;;;;;4.90;0.93;;;0.60;99.90;;;;;;4924343;29;20060;-69
2021/01/29 03:45:06;;;;;;;1.77;0.70;;;0.60;99.90;;;;;;4927592;29;20119;-69
2021/01/29 03:47:34;;;;;;;4.63;2.17;;;0.60;99.90;;;;;;4927735;29;20111;-69
2021/01/29 03:50:42;;;;;;;2.97;1.63;;;0.60;99.90;;;;;;4928080;29;20028;-70
2021/01/29 03:53:45;;;;;;;2.20;1.00;;;0.60;99.90;;;;;;4927695;29;20103;-69
2021/01/29 03:56:30;;;;;;;3.70;1.67;;;0.50;99.90;;;;;;4927868;29;20499;-69
2021/01/29 03:59:34;;;;;;;3.10;1.02;;;0.50;99.90;;;;;;4928261;29;20028;-69
2021/01/29 04:02:15;;;;;;;2.80;1.38;;;0.60;99.90;;;;;;4927083;29;20052;-71
2021/01/29 04:04:55;;;;;;;2.22;1.27;;;0.50;99.90;;;;;;4927882;29;20087;-70
2021/01/29 04:07:35;;;;;;;4.03;1.65;;;0.50;99.90;;;;;;4910692;29;20044;-69
2021/01/29 04:10:05;;;;;;;1.58;1.10;;;0.50;99.90;;;;;;4927909;29;20039;-70
2021/01/29 04:12:53;;;;;;;5.03;1.40;;;0.50;99.90;;;;;;4928053;29;20087;-70
2021/01/29 04:15:32;;;;;;;2.55;1.70;;;0.50;99.90;;;;;;4915642;29;20068;-69
2021/01/29 04:18:19;;;;;;;0.98;0.93;;;0.50;99.90;;;;;;4931631;29;20036;-69
2021/01/29 04:20:57;;;;;;;1.20;1.00;;;0.50;99.90;;;;;;4930391;29;20052;-69
2021/01/29 04:23:38;;;;;;;2.40;1.35;;;0.60;99.90;;;;;;4930348;29;20028;-69
2021/01/29 04:26:13;;;;;;;4.80;1.77;;;0.60;99.90;;;;;;4929844;29;20059;-70
2021/01/29 04:28:43;;;;;;;2.25;1.20;;;0.60;99.90;;;;;;4930184;29;20417;-70
2021/01/29 04:31:12;;;;;;;2.70;1.25;;;0.60;99.90;;;;;;4930242;29;20020;-70
2021/01/29 04:33:43;;;;;;;3.08;1.67;;;0.60;99.90;;;;;;4929567;29;20055;-70
2021/01/29 04:36:10;;;;;;;1.83;1.38;;;0.60;99.90;;;;;;4930045;29;20491;-70
2021/01/29 04:38:52;;;;;;;4.32;2.35;;;0.60;99.90;;;;;;4929899;29;20042;-70
2021/01/29 04:41:32;;;;;;;3.58;1.65;;;0.60;99.90;;;;;;4929605;29;20075;-70
2021/01/29 04:44:27;;;;;;;6.28;1.77;;;0.60;99.90;;;;;;4930090;29;20028;-70
2021/01/29 04:47:06;;;;;;;2.15;1.02;;;0.60;99.90;;;;;;4929101;29;20032;-70
2021/01/29 04:49:50;;;;;;;3.30;1.50;;;0.60;99.90;;;;;;4912959;29;20405;-70
2021/01/29 04:52:26;;;;;;;4.63;1.65;;;0.50;99.90;;;;;;4929591;29;20068;-69
2021/01/29 04:55:07;;;;;;;2.67;1.35;;;0.50;99.90;;;;;;4929483;29;20028;-70
2021/01/29 04:58:07;;;;;;;2.60;1.50;;;0.60;99.90;;;;;;4929646;29;20043;-70
2021/01/29 05:01:10;;;;;;;2.67;1.60;;;0.50;99.90;;;;;;4929786;29;20035;-70
2021/01/29 05:04:12;;;;;;;3.15;1.80;;;0.60;99.90;;;;;;4929110;29;20049;-70
2021/01/29 05:06:46;;;;;;;2.58;0.98;;;0.60;99.90;;;;;;4929489;29;20035;-70
2021/01/29 05:09:47;;;;;;;3.15;1.27;;;0.50;99.90;;;;;;4929069;29;20105;-70
2021/01/29 05:12:38;;;;;;;3.85;1.85;;;0.60;99.90;;;;;;4923754;29;20068;-70
2021/01/29 05:15:09;;;;;;;2.25;1.23;;;0.50;99.90;;;;;;4929575;29;20032;-70
2021/01/29 05:17:49;;;;;;;4.13;1.45;;;0.60;99.90;;;;;;4929328;29;20052;-70
2021/01/29 05:20:27;;;;;;;2.58;0.85;;;0.60;99.90;;;;;;4908225;29;611129;-70
2021/01/29 05:23:31;;;;;;;1.80;1.60;;;0.60;99.90;;;;;;4929911;29;20497;-70
2021/01/29 05:26:36;;;;;;;2.53;1.70;;;0.60;99.90;;;;;;4930075;29;20036;-71
2021/01/29 05:29:07;;;;;;;;;;;0.50;99.90;;;;;;4930835;29;20028;-70
2021/01/29 05:31:55;;;;;;;5.68;1.80;;;0.50;99.90;;;;;;4929908;29;19926;-69
2021/01/29 05:34:53;;;;;;;2.50;1.00;;;0.50;99.90;;;;;;4930320;29;20043;-69
2021/01/29 05:37:51;;;;;;;2.22;1.33;;;0.50;99.90;;;;;;4929694;29;20036;-69
2021/01/29 05:40:30;;;;;;;2.25;0.82;;;0.50;99.90;;;;;;4929996;29;20060;-70
2021/01/29 05:43:25;;;;;;;2.65;1.25;;;0.50;99.90;;;;;;4930137;29;20044;-71
2021/01/29 05:46:06;;;;;;;2.35;1.20;;;0.50;99.90;;;;;;4929547;29;20036;-70
2021/01/29 05:48:52;;;;;;;8.95;1.50;;;0.50;99.90;;;;;;4929963;29;20032;-70
2021/01/29 05:51:52;;;;;;;1.23;0.70;;;0.50;99.90;;;;;;4929470;29;20099;-69
2021/01/29 05:54:56;;;;;;;1.13;0.73;;;0.50;99.90;;;;;;4888790;29;20104;-70
2021/01/29 05:57:51;;;;;;;2.50;1.38;;;0.50;99.90;;;;;;4929717;29;20043;-70
2021/01/29 06:00:48;;;;;;;2.85;0.85;;;0.50;99.90;;;;;;4929611;29;20032;-70
2021/01/29 06:03:49;;;;;;;0.93;0.65;;;0.50;99.90;;;;;;4929789;29;20048;-70
2021/01/29 06:06:59;;;;;;;1.55;0.63;;;0.50;99.90;;;;;;4929382;29;20066;-72
2021/01/29 06:09:36;;;;;;;1.17;0.70;;;0.50;99.90;;;;;;4871201;29;20124;-70
2021/01/29 06:12:26;;;;;;;0.75;0.50;;;0.50;99.90;;;;;;4921406;29;20051;-71
2021/01/29 06:15:20;;;;;;;2.58;1.15;;;0.50;99.90;;;;;;4929506;29;20047;-70
2021/01/29 06:18:26;;;;;;;1.75;0.82;;;0.50;99.90;;;;;;4929358;29;20036;-70
2021/01/29 06:21:06;;;;;;;6.18;1.13;;;0.50;99.90;;;;;;4928737;29;20060;-70
2021/01/29 06:23:45;;;;;;;1.67;1.08;;;0.50;99.90;;;;;;4929129;29;20056;-71
2021/01/29 06:26:48;;;;;;;0.60;0.52;;;0.50;99.90;;;;;;4928982;29;20028;-70
2021/01/29 06:29:28;;;;;;;0.90;0.75;;;0.50;99.90;;;;;;4928887;29;20036;-69
2021/01/29 06:32:36;;;;;;;2.17;1.05;;;0.60;99.90;;;;;;4912298;29;20039;-70
2021/01/29 06:35:35;;;;;;;3.60;0.98;;;0.60;99.90;;;;;;4928768;29;20028;-71
2021/01/29 06:38:29;;;;;;;2.67;0.73;;;0.60;99.90;;;;;;4928271;29;20028;-72
2021/01/29 06:41:21;;;;;;;3.53;1.00;;;0.50;99.90;;;;;;4928730;29;20040;-71
2021/01/29 06:44:13;;;;;;;1.35;0.40;;;0.50;99.90;;;;;;4899208;29;20146;-70
2021/01/29 06:46:57;;;;;;;7.88;1.30;;;0.50;99.90;;;;;;4928627;29;20032;-70
2021/01/29 06:50:00;;;;;;;1.95;1.08;;;0.50;99.90;;;;;;4928736;29;20084;-70
2021/01/29 06:52:56;;;;;;;1.23;0.70;;;0.50;99.90;;;;;;4928781;29;20051;-71
2021/01/29 06:55:43;;;;;;;1.88;0.93;;;0.50;99.90;;;;;;4928217;29;20040;-70
2021/01/29 06:58:34;;;;;;;1.42;0.70;;;0.50;99.90;;;;;;4928211;29;20039;-73
2021/01/29 07:01:45;;;;;;;2.65;0.70;;;0.40;99.90;;;;;;4927801;29;20039;-71
2021/01/29 07:04:25;;;;;;;0.98;0.50;;;0.40;99.90;;;;;;4905594;29;20040;-70
2021/01/29 07:07:32;;;;;;;1.50;0.65;;;0.30;99.90;;;;;;4928428;29;20059;-70
2021/01/29 07:10:27;;;;;;;4.10;1.13;;;0.30;99.90;;;;;;4928151;29;20032;-71
2021/01/29 07:13:04;;;;;;;0.70;0.43;;;0.30;99.90;;;;;;4915713;29;20051;-71
2021/01/29 07:15:52;;;;;;;2.10;1.00;;;0.30;99.90;;;;;;4928197;29;20036;-72
2021/01/29 07:18:29;;;;;;;3.00;0.95;;;0.30;99.90;;;;;;4911037;29;20040;-70
2021/01/29 07:21:13;;;;;;;2.53;0.88;;;0.30;99.90;;;;;;4928105;29;20056;-72
2021/01/29 07:24:00;;;;;;;2.50;0.73;;;0.30;99.90;;;;;;4928798;29;20028;-72
2021/01/29 07:26:50;;;;;;;2.03;1.13;;;0.30;99.90;;;;;;4928324;29;20552;-73
2021/01/29 07:29:19;;;;;;;3.40;1.17;;;0.30;99.90;;;;;;4927144;29;20059;-71
2021/01/29 07:31:56;;;;;;;1.45;0.80;;;0.30;99.90;;;;;;4927604;29;20035;-72
2021/01/29 07:34:37;;;;;;;1.95;0.80;;;0.20;99.90;;;;;;4911613;29;20046;-71
2021/01/29 07:37:28;;;;;;;2.35;0.80;;;0.20;99.90;;;;;;4927804;29;20032;-72
2021/01/29 07:40:26;;;;;;;1.05;0.80;;;0.20;99.90;;;;;;4928584;29;20036;-71
2021/01/29 07:43:10;;;;;;;2.20;1.33;;;0.20;99.90;;;;;;4923915;29;20064;-72
2021/01/29 07:45:45;;;;;;;0.80;0.50;;;0.20;99.90;;;;;;4927967;29;20481;-71
2021/01/29 07:48:37;;;;;;;1.77;0.80;;;0.20;99.90;;;;;;4927644;29;20083;-71
2021/01/29 07:51:15;;;;;;;0.93;0.40;;;0.10;99.90;;;;;;4931455;29;20034;-70
2021/01/29 07:54:03;;;;;;;3.33;0.98;;;0.10;99.90;;;;;;4914728;29;20036;-71
2021/01/29 07:56:50;;;;;;;0.65;0.55;;;0.20;99.90;;;;;;4931454;29;20040;-72
2021/01/29 07:59:43;;;;;;;1.90;0.88;;;0.20;99.90;;;;;;4931961;29;20410;-71
2021/01/29 08:02:33;;;;;;;3.58;1.35;;;0.20;99.90;;;;;;4930211;29;20044;-72
2021/01/29 08:05:22;;;;;;;9.82;1.42;;;0.20;99.90;;;;;;4930724;29;20032;-72
2021/01/29 08:07:53;;;;;;;1.15;0.88;;;0.20;99.90;;;;;;4931044;29;20063;-71
2021/01/29 08:10:32;;;;;;;1.05;0.75;;;0.20;99.90;;;;;;4931128;29;20070;-72
2021/01/29 08:13:24;;;;;;;2.10;1.05;;;0.20;99.90;;;;;;4931450;29;20028;-72
2021/01/29 08:15:56;;;;;;;1.23;0.63;;;0.20;99.90;;;;;;4931527;29;20051;-71
2021/01/29 08:18:40;;;;;;;3.30;1.27;;;0.20;99.90;;;;;;4931103;29;20044;-72
2021/01/29 08:21:21;;;;;;;5.10;1.02;;;0.20;99.90;;;;;;4931052;29;20579;-73
2021/01/29 08:24:05;;;;;;;1.20;0.88;;;0.20;99.90;;;;;;4930511;29;20039;-73
2021/01/29 08:26:44;;;;;;;2.20;0.90;;;0.20;99.90;;;;;;4902796;29;20209;-73
2021/01/29 08:29:39;;;;;;;1.13;0.80;;;0.20;99.90;;;;;;4902237;29;20036;-73
2021/01/29 08:32:53;;;;;;;1.38;0.70;;;0.20;99.90;;;;;;4904470;29;20036;-73
2021/01/29 08:35:27;;;;;;;0.57;0.57;;;0.20;99.90;;;;;;4924788;29;20028;-73
2021/01/29 08:38:21;;;;;;;0.65;0.65;;;0.20;99.90;;;;;;4928359;29;20103;-73
2021/01/29 08:41:22;;;;;;;0.93;0.80;;;0.20;99.90;;;;;;4930306;29;20036;-73
2021/01/29 08:44:09;;;;;;;1.20;1.05;;;0.20;99.90;;;;;;4889760;29;20107;-73
2021/01/29 08:46:41;;;;;;;2.63;0.75;;;0.20;99.90;;;;;;4930355;29;20032;-73
2021/01/29 08:49:28;;;;;;;1.58;0.90;;;0.30;99.90;;;;;;4930586;29;20346;-74
2021/01/29 08:52:18;;;;;;;2.25;1.23;;;0.30;99.90;;;;;;4913228;29;20028;-74
2021/01/29 08:55:10;;;;;;;1.58;1.00;;;0.30;99.90;;;;;;4929716;29;20043;-73
2021/01/29 08:58:00;;;;;;;3.63;1.08;;;0.20;99.90;;;;;;4930235;29;20032;-76
2021/01/29 09:00:29;;;;;;;2.10;1.20;;;0.30;99.90;;;;;;4929870;29;20024;-74
2021/01/29 09:03:19;;;;;;;11.93;1.67;;;0.30;99.90;;;;;;4930250;29;20549;-73
2021/01/29 09:05:49;;;;;;;4.03;1.35;;;0.30;99.90;;;;;;4929921;29;20066;-73
2021/01/29 09:08:22;;;;;;;9.75;1.38;;;0.30;99.90;;;;;;4930116;29;20024;-74
2021/01/29 09:10:50;;;;;;;5.18;2.08;;;0.30;99.90;;;;;;4930631;29;20032;-73
2021/01/29 09:13:20;;;;;;;2.28;1.27;;;0.40;99.90;;;;;;4930338;29;20060;-72
2021/01/29 09:16:05;;;;;;;6.30;1.73;;;0.40;99.90;;;;;;4930519;29;20152;-73
2021/01/29 09:18:42;;;;;;;3.25;1.52;;;0.40;99.90;;;;;;4930154;29;20106;-74
2021/01/29 09:21:25;;;;;;;2.08;1.10;;;0.40;99.90;;;;;;4929736;29;20063;-77
2021/01/29 09:24:12;;;;;;;5.53;1.20;;;0.40;99.90;;;;;;4904601;29;20039;-74
2021/01/29 09:27:06;;;;;;;2.22;1.27;;;0.40;99.90;;;;;;4911148;29;20036;-75
2021/01/29 09:29:39;;;;;;;2.78;1.35;;;0.40;99.90;;;;;;4910252;29;20052;-74
2021/01/29 09:32:09;;;;;;;1.80;1.35;;;0.40;99.90;;;;;;4911274;29;20084;-73
2021/01/29 09:34:55;;;;;;;4.68;1.88;;;0.40;99.90;;;;;;4910706;29;20036;-73
2021/01/29 09:37:25;;;;;;;2.90;1.38;;;0.40;99.90;;;;;;4910694;29;20057;-72
2021/01/29 09:39:54;;;;;;;2.92;1.20;;;0.50;99.90;;;;;;4910869;29;20033;-73
2021/01/29 09:42:51;;;;;;;2.10;1.70;;;0.50;99.90;;;;;;4910901;29;20092;-72
2021/01/29 09:45:21;;;;;;;5.30;2.30;;;0.50;99.90;;;;;;4909481;29;20064;-72
2021/01/29 09:47:55;;;;;;;2.97;1.15;;;0.50;99.90;;;;;;4916761;29;20020;-73
2021/01/29 09:50:23;;;;;;;3.42;2.35;;;0.50;99.90;;;;;;4920882;29;20036;-72
2021/01/29 09:53:06;;;;;;;2.58;1.23;;;0.50;99.90;;;;;;4910422;29;20094;-75
2021/01/29 09:56:00;;;;;;;4.38;1.50;;;0.50;99.90;;;;;;4910729;29;20051;-72
2021/01/29 09:58:37;;;;;;;2.80;1.50;;;0.60;99.90;;;;;;4911286;29;20028;-73
2021/01/29 10:01:12;;;;;;;2.55;1.42;;;0.60;99.90;;;;;;4910611;29;20039;-73
2021/01/29 10:04:02;;;;;;;4.18;2.30;;;0.60;99.90;;;;;;4911060;29;20029;-72
2021/01/29 10:06:53;;;;;;;2.92;1.65;;;0.60;99.90;;;;;;4911126;29;20029;-74
2021/01/29 10:09:34;;;;;;;3.20;1.30;;;0.70;99.90;;;;;;4893436;29;20092;-73
2021/01/29 10:12:17;;;;;;;4.45;2.05;;;0.70;99.90;;;;;;4910021;29;20092;-74
2021/01/29 10:14:44;;;;;;;3.45;1.65;;;0.70;99.90;;;;;;4910210;29;20117;-73
2021/01/29 10:17:21;;;;;;;2.55;1.10;;;0.70;99.90;;;;;;4909758;29;20112;-74
2021/01/29 10:19:52;;;;;;;3.35;2.03;;;0.70;99.90;;;;;;4910711;29;20036;-73
2021/01/29 10:22:49;;;;;;;3.78;1.58;;;0.70;99.90;;;;;;4909589;29;20057;-74
2021/01/29 10:25:21;;;;;;;2.60;1.40;;;0.70;99.90;;;;;;4893289;29;20028;-76
2021/01/29 10:28:09;;;;;;;3.88;1.70;;;0.70;99.90;;;;;;4910379;29;20054;-74
2021/01/29 10:30:57;;;;;;;3.55;1.95;;;0.70;99.90;;;;;;4910071;29;20031;-73
2021/01/29 10:33:32;;;;;;;6.43;1.52;;;0.70;99.90;;;;;;4910123;29;20031;-74
2021/01/29 10:36:04;;;;;;;6.00;2.42;;;0.70;99.90;;;;;;4892511;29;20040;-74
2021/01/29 10:38:38;;;;;;;4.03;1.73;;;0.70;99.90;;;;;;4909657;29;20084;-75
2021/01/29 10:41:14;;;;;;;5.75;1.17;;;0.70;99.90;;;;;;4892342;29;20032;-75
2021/01/29 10:44:06;;;;;;;2.75;1.70;;;0.70;99.90;;;;;;4909197;29;20456;-73
2021/01/29 10:47:02;;;;;;;6.78;1.63;;;0.70;99.90;;;;;;4901071;29;20136;-73
2021/01/29 10:50:08;;;;;;;4.80;2.22;;;0.70;99.90;;;;;;4909768;29;20385;-73
2021/01/29 10:52:39;;;;;;;3.03;1.92;;;0.70;99.90;;;;;;4909226;29;20036;-73
2021/01/29 10:55:34;;;;;;;5.47;2.75;;;0.70;99.90;;;;;;4909451;29;20477;-72
2021/01/29 10:58:08;;;;;;;6.60;2.22;;;0.70;99.90;;;;;;4908730;29;20029;-74
2021/01/29 11:00:37;;;;;;;1.58;1.30;;;0.70;99.90;;;;;;4908923;29;20028;-74
2021/01/29 11:03:21;;;;;;;4.63;1.27;;;0.70;99.90;;;;;;4908681;29;20033;-72
2021/01/29 11:05:49;;;;;;;3.60;1.50;;;0.70;99.90;;;;;;4908603;29;20044;-72
2021/01/29 11:08:20;;;;;;;2.67;1.50;;;0.70;99.90;;;;;;4908755;29;20359;-70
2021/01/29 11:10:51;;;;;;;3.38;1.80;;;0.70;99.90;;;;;;4908629;29;20485;-72
2021/01/29 11:13:27;;;;;;;2.97;1.15;;;0.70;99.90;;;;;;4908486;29;20108;-71
2021/01/29 11:16:01;;;;;;;3.75;1.90;;;0.70;99.90;;;;;;4907977;29;20025;-72
2021/01/29 11:18:32;;;;;;;;;;;0.70;99.90;;;;;;4906954;29;20088;-74
2021/01/29 11:21:23;;;;;;;2.92;1.42;;;0.70;99.90;;;;;;4907944;29;20439;-73
2021/01/29 11:24:04;;;;;;;4.20;1.63;;;0.70;99.90;;;;;;4907955;29;20036;-71
2021/01/29 11:27:04;;;;;;;4.53;1.85;;;0.70;99.90;;;;;;4907547;29;20024;-73
2021/01/29 11:29:49;;;;;;;4.07;1.80;;;0.60;99.90;;;;;;4906033;29;20041;-71
2021/01/29 11:32:33;;;;;;;1.95;1.42;;;0.70;99.90;;;;;;4908151;29;20029;-70
2021/01/29 11:35:03;;;;;;;;;;;0.70;99.90;;;;;;4908334;29;20358;-71
2021/01/29 11:37:47;;;;;;;3.10;1.30;;;0.70;99.90;;;;;;4890849;29;19943;-73
2021/01/29 11:40:20;;;;;;;1.35;1.10;;;0.60;99.90;;;;;;4907796;29;20039;-72
2021/01/29 11:43:18;;;;;;;3.22;1.60;;;0.70;99.90;;;;;;4907480;29;20052;-71
2021/01/29 11:45:52;;;;;;;2.42;1.58;;;0.70;99.90;;;;;;4886738;29;20104;-73
2021/01/29 11:48:30;;;;;;;2.20;1.65;;;0.80;99.90;;;;;;4890494;29;20069;-73
2021/01/29 11:51:30;;;;;;;3.97;1.75;;;0.80;99.90;;;;;;4908182;29;20052;-73
2021/01/29 11:54:18;;;;;;;2.75;1.92;;;0.70;99.90;;;;;;4907192;29;20036;-73
2021/01/29 11:57:12;;;;;;;5.38;1.90;;;0.70;99.90;;;;;;4906119;29;20108;-74
2021/01/29 11:59:52;;;;;;;1.30;0.90;;;0.70;99.90;;;;;;4907137;29;20032;-75
2021/01/29 12:02:36;;;;;;;2.60;1.35;;;0.80;99.90;;;;;;4890646;29;20032;-76
2021/01/29 12:05:11;;;;;;;4.65;1.27;;;0.70;99.90;;;;;;4890928;29;20040;-75
2021/01/29 12:07:42;;;;;;;1.88;1.15;;;0.70;99.90;;;;;;4907500;29;20040;-74
2021/01/29 12:10:16;;;;;;;2.08;1.00;;;0.70;99.90;;;;;;4890733;29;20473;-75
2021/01/29 12:13:14;;;;;;;4.10;1.95;;;0.70;99.90;;;;;;4907606;29;20033;-74
2021/01/29 12:15:46;;;;;;;3.38;1.58;;;0.80;99.90;;;;;;4906132;29;20067;-74
2021/01/29 12:18:14;;;;;;;1.42;0.90;;;0.80;99.90;;;;;;4906483;29;20029;-75
2021/01/29 12:20:42;;;;;;;2.40;1.15;;;0.80;99.90;;;;;;4907290;29;20113;-74
2021/01/29 12:23:30;;;;;;;4.57;1.80;;;0.80;99.90;;;;;;4889834;29;20045;-74
2021/01/29 12:26:14;;;;;;;3.35;1.50;;;0.80;99.90;;;;;;4907977;29;20059;-75
2021/01/29 12:29:06;;;;;;;6.05;1.77;;;0.80;99.90;;;;;;4907278;29;20036;-74
2021/01/29 12:31:47;;;;;;;6.43;0.90;;;0.80;99.90;;;;;;4907657;29;20048;-76
2021/01/29 12:34:34;;;;;;;2.35;0.98;;;0.80;99.90;;;;;;4907365;29;20056;-75
2021/01/29 12:37:08;;;;;;;2.40;1.20;;;0.90;99.90;;;;;;4909689;29;20080;-74
2021/01/29 12:39:34;;;;;;;2.17;1.30;;;0.90;99.90;;;;;;4910933;29;20059;-75
2021/01/29 12:42:09;;;;;;;1.52;0.88;;;0.90;99.90;;;;;;4910745;29;20041;-72
2021/01/29 12:44:46;;;;;;;4.05;1.33;;;0.80;99.90;;;;;;4910560;29;20024;-74
2021/01/29 12:47:28;;;;;;;1.73;0.93;;;0.80;99.90;;;;;;4894011;29;20062;-74
2021/01/29 12:50:16;;;;;;;2.88;1.52;;;0.80;99.90;;;;;;4909840;29;20088;-73
2021/01/29 12:52:49;;;;;;;1.92;1.35;;;0.80;99.90;;;;;;4909873;29;20033;-73
2021/01/29 12:55:24;;;;;;;1.20;0.93;;;0.80;99.90;;;;;;4909751;29;20036;-73
2021/01/29 12:58:03;;;;;;;1.60;1.02;;;0.80;99.90;;;;;;4893753;29;20047;-73
2021/01/29 13:00:40;;;;;;;1.88;0.88;;;0.80;99.90;;;;;;4910607;29;20029;-74
2021/01/29 13:03:06;;;;;;;3.90;1.02;;;0.80;99.90;;;;;;4910097;29;20052;-74
2021/01/29 13:06:27;;;;;;;0.63;0.55;;;0.80;99.90;;;;;;4893437;29;20100;-74
2021/01/29 13:09:06;;;;;;;3.40;1.75;;;0.80;99.90;;;;;;4815075;29;20490;-72
2021/01/29 13:11:57;;;;;;;1.60;0.60;;;0.70;99.90;;;;;;4899918;29;20049;-74
2021/01/29 13:14:28;;;;;;;2.22;1.20;;;0.70;99.90;;;;;;4892566;29;20370;-73
2021/01/29 13:17:15;;;;;;;1.60;0.95;;;0.70;99.90;;;;;;4910264;29;20028;-72
2021/01/29 13:19:41;;;;;;;1.08;0.90;;;0.70;99.90;;;;;;4910269;29;20044;-72
2021/01/29 13:22:36;;;;;;;1.98;0.50;;;0.70;99.90;;;;;;4909562;29;20067;-73
2021/01/29 13:25:05;;;;;;;1.77;0.77;;;0.70;99.90;;;;;;4908866;29;20084;-75
2021/01/29 13:27:36;;;;;;;2.47;1.40;;;0.70;99.90;;;;;;4909684;29;20028;-73
2021/01/29 13:30:23;;;;;;;0.98;0.63;;;0.70;99.90;;;;;;4910075;29;20092;-75
2021/01/29 13:32:49;;;;;;;5.97;1.20;;;0.70;99.90;;;;;;4910175;29;20035;-74
2021/01/29 13:35:31;;;;;;;1.50;0.80;;;0.70;99.90;;;;;;4909468;29;20100;-73
2021/01/29 13:38:28;;;;;;;2.95;1.40;;;0.70;99.90;;;;;;4892930;29;20144;-74
2021/01/29 13:40:54;;;;;;;2.67;0.88;;;0.70;99.90;;;;;;4892806;29;20036;-72
2021/01/29 13:43:32;;;;;;;2.15;1.20;;;0.80;99.90;;;;;;4909540;29;20110;-72
2021/01/29 13:46:05;;;;;;;2.80;1.17;;;0.80;99.90;;;;;;4892967;29;20024;-73
2021/01/29 13:48:33;;;;;;;1.85;1.13;;;0.90;99.90;;;;;;4909749;29;20037;-72
2021/01/29 13:51:30;;;;;;;1.23;0.90;;;0.90;99.90;;;;;;4909735;29;20041;-71
2021/01/29 13:53:55;;;;;;;2.95;1.38;;;0.90;99.90;;;;;;4910116;29;20487;-71
2021/01/29 13:56:31;;;;;;;2.33;1.17;;;0.80;99.90;;;;;;4909827;29;20036;-70
2021/01/29 13:59:10;;;;;;;2.08;1.08;;;0.80;99.90;;;;;;4909953;29;20088;-71
2021/01/29 14:01:46;;;;;;;5.40;1.50;;;0.80;99.90;;;;;;4909990;29;20107;-72
2021/01/29 14:04:16;;;;;;;1.67;0.82;;;0.70;99.90;;;;;;4909859;29;20025;-69
2021/01/29 14:06:44;;;;;;;2.10;0.90;;;0.70;99.90;;;;;;4909661;29;20433;-69